createdAt,value
2023-02-22T00:02:59.864Z,64.36
2023-02-22T00:06:04.990Z,64.38
2023-02-22T00:09:09.188Z,64.36
2023-02-22T00:12:10.652Z,64.76
2023-02-22T00:15:14.122Z,64.27
2023-02-22T00:18:18.795Z,64.31
2023-02-22T00:21:21.554Z,64.37
2023-02-22T00:24:23.325Z,64.48
2023-02-22T00:27:25.236Z,64.33
2023-02-22T00:30:29.507Z,64.27
2023-02-22T00:33:31.656Z,64.33
2023-02-22T00:36:33.117Z,64.36
2023-02-22T00:39:34.622Z,64.37
2023-02-22T00:42:36.243Z,64.48
2023-02-22T00:45:37.824Z,64.40
2023-02-22T00:48:39.294Z,64.00
2023-02-22T00:51:40.870Z,64.38
2023-02-22T00:54:42.441Z,64.42
2023-02-22T00:57:43.963Z,64.46
2023-02-22T01:00:46.427Z,64.35
2023-02-22T01:03:48.952Z,64.58
2023-02-22T01:06:51.229Z,64.44
2023-02-22T01:09:53.602Z,64.30
2023-02-22T01:12:56.009Z,64.47
2023-02-22T01:15:57.528Z,64.34
2023-02-22T01:19:01.288Z,64.41
2023-02-22T01:22:02.760Z,64.48
2023-02-22T01:25:07.211Z,64.40
2023-02-22T01:28:08.970Z,64.33
2023-02-22T01:31:10.608Z,64.39
2023-02-22T01:34:12.942Z,64.53
2023-02-22T01:37:14.429Z,64.39
2023-02-22T01:40:23.860Z,64.31
2023-02-22T01:43:32.953Z,64.41
2023-02-22T01:46:34.437Z,64.48
2023-02-22T01:49:42.664Z,64.37
2023-02-22T01:52:44.283Z,64.58
2023-02-22T01:55:47.025Z,64.39
2023-02-22T01:58:56.675Z,64.42
2023-02-22T02:01:58.418Z,64.39
2023-02-22T02:05:00.030Z,64.25
2023-02-22T02:08:14.489Z,64.22
2023-02-22T02:11:20.967Z,64.44
2023-02-22T02:14:22.876Z,64.47
2023-02-22T02:17:24.952Z,64.33
2023-02-22T02:20:44.730Z,64.44
2023-02-22T02:23:55.229Z,64.39
2023-02-22T02:26:59.774Z,64.39
2023-02-22T02:30:22.715Z,64.42
2023-02-22T02:33:44.605Z,64.47
2023-02-22T02:37:12.368Z,64.46
2023-02-22T02:40:57.987Z,64.31
2023-02-22T02:44:26.986Z,64.55
2023-02-22T02:47:32.448Z,64.51
2023-02-22T02:50:41.580Z,64.57
2023-02-22T02:53:47.690Z,64.54
2023-02-22T02:56:50.638Z,64.55
2023-02-22T02:59:52.147Z,64.46
2023-02-22T03:03:21.698Z,64.51
2023-02-22T03:06:45.913Z,64.54
2023-02-22T03:10:07.351Z,64.59
2023-02-22T03:13:27.793Z,64.58
2023-02-22T03:16:39.862Z,64.65
2023-02-22T03:19:57.578Z,64.61
2023-02-22T03:23:06.972Z,64.66
2023-02-22T03:26:13.106Z,64.72
2023-02-22T03:29:18.362Z,64.66
2023-02-22T03:32:27.197Z,64.70
2023-02-22T03:35:35.709Z,64.64
2023-02-22T03:38:41.743Z,64.67
2023-02-22T03:41:51.327Z,64.62
2023-02-22T03:44:58.963Z,64.73
2023-02-22T03:48:06.749Z,64.78
2023-02-22T03:51:09.140Z,64.68
2023-02-22T03:54:16.223Z,64.80
2023-02-22T03:57:28.216Z,64.70
2023-02-22T04:00:38.785Z,64.66
2023-02-22T04:03:40.470Z,64.65
2023-02-22T04:06:42.359Z,64.74
2023-02-22T04:09:44.031Z,64.72
2023-02-22T04:12:46.644Z,64.62
2023-02-22T04:15:48.672Z,64.54
2023-02-22T04:18:50.273Z,64.88
2023-02-22T04:21:53.522Z,64.80
2023-02-22T04:24:59.623Z,64.80
2023-02-22T04:28:02.817Z,64.82
2023-02-22T04:31:19.514Z,64.79
2023-02-22T04:34:21.651Z,64.90
2023-02-22T04:37:23.475Z,64.97
2023-02-22T04:40:25.129Z,65.08
2023-02-22T04:43:27.118Z,65.10
2023-02-22T04:46:35.699Z,65.07
2023-02-22T04:49:39.092Z,65.06
2023-02-22T04:52:41.182Z,65.06
2023-02-22T04:55:42.760Z,65.08
2023-02-22T04:58:44.380Z,65.03
2023-02-22T05:01:45.870Z,64.96
2023-02-22T05:04:47.965Z,64.87
2023-02-22T05:07:50.205Z,64.83
2023-02-22T05:10:51.701Z,64.66
2023-02-22T05:13:53.212Z,64.55
2023-02-22T05:16:56.759Z,64.60
2023-02-22T05:19:58.216Z,64.78
2023-02-22T05:23:01.341Z,64.39
2023-02-22T05:26:02.817Z,64.48
2023-02-22T05:29:04.347Z,64.25
2023-02-22T05:32:06.776Z,64.27
2023-02-22T05:35:08.402Z,64.35
2023-02-22T05:38:12.531Z,64.25
2023-02-22T05:41:14.120Z,64.19
2023-02-22T05:44:15.678Z,64.16
2023-02-22T05:47:17.295Z,64.34
2023-02-22T05:50:20.029Z,64.40
2023-02-22T05:53:21.536Z,64.44
2023-02-22T05:56:28.534Z,64.23
2023-02-22T05:59:30.219Z,64.33
2023-02-22T06:02:31.757Z,64.60
2023-02-22T06:05:33.892Z,64.52
2023-02-22T06:08:35.811Z,64.54
2023-02-22T06:11:37.313Z,64.73
2023-02-22T06:14:40.864Z,64.84
2023-02-22T06:17:42.706Z,64.91
2023-02-22T06:20:44.280Z,65.36
2023-02-22T06:23:45.758Z,65.05
2023-02-22T06:26:47.396Z,65.15
2023-02-22T06:29:48.902Z,64.77
2023-02-22T06:32:50.505Z,65.04
2023-02-22T06:35:51.972Z,65.23
2023-02-22T06:38:53.427Z,65.16
2023-02-22T06:41:56.357Z,64.88
2023-02-22T06:44:57.898Z,65.19
2023-02-22T06:47:59.482Z,64.88
2023-02-22T06:51:00.948Z,64.65
2023-02-22T06:54:04.414Z,64.79
2023-02-22T06:57:05.875Z,64.52
2023-02-22T07:00:08.049Z,64.57
2023-02-22T07:03:10.898Z,64.62
2023-02-22T07:06:12.359Z,64.59
2023-02-22T07:09:14.555Z,64.77
2023-02-22T07:12:16.061Z,64.82
2023-02-22T07:15:18.707Z,64.98
2023-02-22T07:18:20.218Z,65.08
2023-02-22T07:21:21.698Z,65.12
2023-02-22T07:24:23.164Z,65.18
2023-02-22T07:27:24.687Z,64.96
2023-02-22T07:30:31.185Z,65.11
2023-02-22T07:33:32.799Z,65.29
2023-02-22T07:36:34.269Z,65.56
2023-02-22T07:39:37.847Z,65.41
2023-02-22T07:42:58.034Z,65.52
2023-02-22T07:46:02.724Z,65.55
2023-02-22T07:49:05.177Z,65.87
2023-02-22T07:52:07.744Z,65.92
2023-02-22T07:55:09.212Z,65.55
2023-02-22T07:58:15.002Z,63.87
2023-02-22T08:01:16.868Z,59.83
2023-02-22T08:04:18.537Z,58.40
2023-02-22T08:07:20.009Z,57.91
2023-02-22T08:10:23.296Z,58.19
2023-02-22T08:13:24.879Z,58.49
2023-02-22T08:16:26.431Z,58.33
2023-02-22T08:19:27.896Z,58.76
2023-02-22T08:22:29.483Z,59.08
2023-02-22T08:25:31.004Z,59.65
2023-02-22T08:28:32.575Z,60.20
2023-02-22T08:31:34.157Z,60.50
2023-02-22T08:34:36.182Z,60.63
2023-02-22T08:37:42.212Z,60.79
2023-02-22T08:40:43.766Z,60.89
2023-02-22T08:43:45.265Z,60.99
2023-02-22T08:46:46.730Z,60.94
2023-02-22T08:49:48.232Z,60.76
2023-02-22T08:52:51.484Z,60.51
2023-02-22T08:55:53.205Z,60.40
2023-02-22T08:58:54.693Z,60.64
2023-02-22T09:01:56.215Z,60.59
2023-02-22T09:04:57.709Z,60.66
2023-02-22T09:07:59.902Z,60.66
2023-02-22T09:11:01.409Z,60.78
2023-02-22T09:14:02.862Z,60.76
2023-02-22T09:17:05.826Z,60.80
2023-02-22T09:20:08.778Z,60.80
2023-02-22T09:23:10.351Z,60.81
2023-02-22T09:26:11.875Z,60.75
2023-02-22T09:29:13.609Z,60.78
2023-02-22T09:32:18.048Z,60.95
2023-02-22T09:35:20.771Z,61.12
2023-02-22T09:38:24.651Z,61.25
2023-02-22T09:41:34.557Z,61.31
2023-02-22T09:44:53.685Z,61.34
2023-02-22T09:48:15.211Z,61.50
2023-02-22T09:51:26.516Z,61.42
2023-02-22T09:54:45.536Z,61.50
2023-02-22T09:57:47.503Z,61.49
2023-02-22T10:00:56.230Z,61.55
2023-02-22T10:04:12.953Z,61.46
2023-02-22T10:07:26.025Z,61.49
2023-02-22T10:10:33.527Z,61.87
2023-02-22T10:13:51.387Z,62.39
2023-02-22T10:17:30.415Z,62.97
2023-02-22T10:20:57.044Z,63.25
2023-02-22T10:24:10.429Z,63.35
2023-02-22T10:27:18.939Z,63.27
2023-02-22T10:30:27.880Z,63.36
2023-02-22T10:33:37.312Z,63.40
2023-02-22T10:36:39.148Z,63.30
2023-02-22T10:39:42.026Z,63.23
2023-02-22T10:42:44.106Z,63.17
2023-02-22T10:45:45.626Z,61.81
2023-02-22T10:48:51.497Z,61.80
2023-02-22T10:52:00.920Z,61.88
2023-02-22T10:55:15.274Z,61.98
2023-02-22T10:58:17.425Z,62.08
2023-02-22T11:01:27.528Z,62.08
2023-02-22T11:04:45.316Z,62.16
2023-02-22T11:07:46.810Z,62.16
2023-02-22T11:10:53.917Z,62.08
2023-02-22T11:13:56.531Z,62.20
2023-02-22T11:17:00.636Z,62.24
2023-02-22T11:20:02.601Z,62.30
2023-02-22T11:23:05.638Z,62.38
2023-02-22T11:26:09.341Z,62.17
2023-02-22T11:29:18.409Z,62.38
2023-02-22T11:32:22.405Z,62.41
2023-02-22T11:35:35.392Z,62.45
2023-02-22T11:38:53.160Z,62.67
2023-02-22T11:41:56.496Z,62.60
2023-02-22T11:45:23.770Z,62.63
2023-02-22T11:48:25.288Z,62.66
2023-02-22T11:51:29.681Z,62.84
2023-02-22T11:54:58.694Z,62.85
2023-02-22T11:58:42.762Z,62.94
2023-02-22T12:01:53.828Z,62.92
2023-02-22T12:05:30.800Z,62.88
2023-02-22T12:09:00.288Z,62.92
2023-02-22T12:12:24.152Z,62.90
2023-02-22T12:15:36.297Z,62.88
2023-02-22T12:19:08.079Z,63.07
2023-02-22T12:22:17.615Z,63.00
2023-02-22T12:25:26.732Z,63.25
2023-02-22T12:28:46.132Z,63.11
2023-02-22T12:32:15.964Z,63.05
2023-02-22T12:35:22.592Z,63.09
2023-02-22T12:38:39.500Z,63.07
2023-02-22T12:41:45.921Z,63.13
2023-02-22T12:44:51.969Z,63.30
2023-02-22T12:48:04.269Z,63.52
2023-02-22T12:51:23.856Z,63.67
2023-02-22T12:54:39.837Z,63.99
2023-02-22T12:57:53.228Z,63.96
2023-02-22T13:01:12.035Z,64.13
2023-02-22T13:04:21.083Z,64.35
2023-02-22T13:07:52.625Z,64.43
2023-02-22T13:11:06.410Z,64.51
2023-02-22T13:14:16.511Z,64.64
2023-02-22T13:17:31.468Z,64.69
2023-02-22T13:20:48.407Z,64.90
2023-02-22T13:24:05.137Z,64.92
2023-02-22T13:27:16.970Z,64.99
2023-02-22T13:30:36.365Z,64.94
2023-02-22T13:34:01.029Z,65.36
2023-02-22T13:37:21.084Z,65.65
2023-02-22T13:40:46.578Z,65.78
2023-02-22T13:44:00.362Z,66.05
2023-02-22T13:47:31.678Z,66.13
2023-02-22T13:50:58.259Z,66.15
2023-02-22T13:54:07.817Z,66.26
2023-02-22T13:57:30.795Z,66.29
2023-02-22T14:00:41.211Z,66.20
2023-02-22T14:03:42.774Z,66.38
2023-02-22T14:06:45.689Z,66.05
2023-02-22T14:09:50.428Z,66.30
2023-02-22T14:12:52.027Z,66.34
2023-02-22T14:16:02.461Z,66.32
2023-02-22T14:19:24.936Z,66.21
2023-02-22T14:22:29.271Z,66.33
2023-02-22T14:25:33.807Z,66.28
2023-02-22T14:28:59.125Z,66.41
2023-02-22T14:32:11.048Z,66.41
2023-02-22T14:35:27.564Z,66.43
2023-02-22T14:38:33.079Z,66.31
2023-02-22T14:41:37.805Z,66.45
2023-02-22T14:44:48.786Z,66.41
2023-02-22T14:48:11.500Z,66.41
2023-02-22T14:51:24.566Z,66.44
2023-02-22T14:54:36.827Z,66.26
2023-02-22T14:57:59.038Z,66.25
2023-02-22T15:01:49.004Z,66.19
2023-02-22T15:04:57.104Z,66.19
2023-02-22T15:08:02.117Z,66.12
2023-02-22T15:11:03.845Z,65.96
2023-02-22T15:14:26.293Z,66.14
2023-02-22T15:17:28.304Z,65.98
2023-02-22T15:20:30.277Z,65.95
2023-02-22T15:23:41.602Z,65.87
2023-02-22T15:27:00.118Z,65.92
2023-02-22T15:30:15.562Z,65.88
2023-02-22T15:33:24.140Z,65.84
2023-02-22T15:36:30.773Z,65.79
2023-02-22T15:39:34.372Z,65.81
2023-02-22T15:42:43.642Z,65.71
2023-02-22T15:45:46.234Z,65.72
2023-02-22T15:49:24.099Z,65.84
2023-02-22T15:52:26.441Z,65.70
2023-02-22T15:55:32.544Z,65.65
2023-02-22T15:58:34.515Z,65.60
2023-02-22T16:01:42.801Z,65.81
2023-02-22T16:04:51.422Z,65.84
2023-02-22T16:07:59.691Z,65.78
2023-02-22T16:11:05.445Z,65.86
2023-02-22T16:14:24.873Z,65.97
2023-02-22T16:17:35.667Z,65.85
2023-02-22T16:20:38.325Z,65.81
2023-02-22T16:23:50.132Z,65.83
2023-02-22T16:27:11.910Z,65.84
2023-02-22T16:30:32.260Z,65.80
2023-02-22T16:33:34.062Z,65.65
2023-02-22T16:36:42.957Z,65.27
2023-02-22T16:39:45.645Z,64.80
2023-02-22T16:42:47.131Z,64.69
2023-02-22T16:45:48.954Z,64.02
2023-02-22T16:48:50.544Z,63.82
2023-02-22T16:51:58.632Z,63.85
2023-02-22T16:55:01.923Z,64.01
2023-02-22T16:58:04.768Z,63.94
2023-02-22T17:01:06.822Z,63.79
2023-02-22T17:04:25.626Z,63.90
2023-02-22T17:07:30.705Z,63.90
2023-02-22T17:10:33.014Z,63.89
2023-02-22T17:13:37.391Z,63.84
2023-02-22T17:16:38.867Z,64.04
2023-02-22T17:19:40.421Z,63.83
2023-02-22T17:22:43.106Z,63.70
2023-02-22T17:25:55.614Z,63.78
2023-02-22T17:28:57.075Z,63.64
2023-02-22T17:31:58.882Z,63.92
2023-02-22T17:35:00.380Z,63.91
2023-02-22T17:38:05.950Z,63.92
2023-02-22T17:41:07.740Z,63.75
2023-02-22T17:44:09.398Z,63.78
2023-02-22T17:47:10.898Z,63.92
2023-02-22T17:50:15.264Z,64.15
2023-02-22T17:53:21.480Z,64.17
2023-02-22T17:56:23.010Z,64.29
2023-02-22T17:59:24.465Z,64.58
2023-02-22T18:02:26.112Z,64.33
2023-02-22T18:05:28.211Z,64.15
2023-02-22T18:08:31.944Z,64.27
2023-02-22T18:11:33.436Z,64.28
2023-02-22T18:14:34.885Z,64.33
2023-02-22T18:17:37.873Z,64.24
2023-02-22T18:20:46.318Z,64.07
2023-02-22T18:23:47.900Z,64.24
2023-02-22T18:26:50.283Z,64.10
2023-02-22T18:29:51.799Z,64.08
2023-02-22T18:32:53.526Z,64.16
2023-02-22T18:35:55.177Z,63.95
2023-02-22T18:38:56.764Z,64.27
2023-02-22T18:41:58.325Z,64.05
2023-02-22T18:45:03.156Z,64.31
2023-02-22T18:48:04.821Z,64.42
2023-02-22T18:51:10.234Z,64.37
2023-02-22T18:54:12.858Z,64.31
2023-02-22T18:57:14.430Z,64.14
2023-02-22T19:00:19.282Z,64.21
2023-02-22T19:03:20.775Z,63.98
2023-02-22T19:06:22.798Z,64.19
2023-02-22T19:09:24.884Z,64.20
2023-02-22T19:12:26.989Z,64.07
2023-02-22T19:15:28.459Z,63.89
2023-02-22T19:18:30.703Z,64.08
2023-02-22T19:21:32.877Z,64.13
2023-02-22T19:24:39.642Z,64.06
2023-02-22T19:27:44.258Z,63.99
2023-02-22T19:30:47.183Z,64.29
2023-02-22T19:33:51.273Z,64.33
2023-02-22T19:36:52.856Z,64.39
2023-02-22T19:39:54.313Z,64.39
2023-02-22T19:42:57.307Z,64.37
2023-02-22T19:45:58.834Z,64.45
2023-02-22T19:49:01.596Z,64.23
2023-02-22T19:52:06.365Z,64.38
2023-02-22T19:55:14.717Z,64.34
2023-02-22T19:58:16.263Z,64.46
2023-02-22T20:01:24.732Z,64.66
2023-02-22T20:04:30.331Z,64.63
2023-02-22T20:07:31.898Z,64.66
2023-02-22T20:10:36.992Z,64.57
2023-02-22T20:13:39.427Z,64.63
2023-02-22T20:16:40.911Z,64.56
2023-02-22T20:19:43.036Z,64.24
2023-02-22T20:22:45.549Z,64.41
2023-02-22T20:25:56.765Z,64.42
2023-02-22T20:28:58.795Z,64.24
2023-02-22T20:32:02.201Z,64.19
2023-02-22T20:35:07.571Z,64.17
2023-02-22T20:38:09.410Z,64.08
2023-02-22T20:41:17.167Z,64.16
2023-02-22T20:44:19.231Z,64.25
2023-02-22T20:47:20.914Z,64.26
2023-02-22T20:50:22.470Z,63.84
2023-02-22T20:53:24.049Z,64.17
2023-02-22T20:56:27.893Z,64.18
2023-02-22T20:59:30.253Z,64.21
2023-02-22T21:02:31.707Z,63.96
2023-02-22T21:05:33.517Z,63.99
2023-02-22T21:08:35.416Z,63.69
2023-02-22T21:11:36.946Z,63.85
2023-02-22T21:14:38.602Z,63.92
2023-02-22T21:17:40.069Z,63.92
2023-02-22T21:20:43.221Z,63.89
2023-02-22T21:23:49.617Z,63.97
2023-02-22T21:26:52.059Z,63.91
2023-02-22T21:29:57.651Z,64.22
2023-02-22T21:32:59.158Z,63.83
2023-02-22T21:36:11.180Z,63.69
2023-02-22T21:39:20.630Z,63.80
2023-02-22T21:42:22.128Z,63.63
2023-02-22T21:45:23.691Z,63.91
2023-02-22T21:48:26.569Z,63.77
2023-02-22T21:51:33.148Z,63.62
2023-02-22T21:54:34.759Z,63.60
2023-02-22T21:57:36.568Z,63.62
2023-02-22T22:00:42.515Z,63.69
2023-02-22T22:03:45.055Z,63.79
2023-02-22T22:06:49.721Z,63.92
2023-02-22T22:09:56.437Z,64.00
2023-02-22T22:12:58.158Z,63.94
2023-02-22T22:16:04.530Z,63.89
2023-02-22T22:19:06.863Z,64.03
2023-02-22T22:22:08.548Z,64.12
2023-02-22T22:25:13.294Z,64.05
2023-02-22T22:28:14.979Z,64.15
2023-02-22T22:31:19.444Z,64.19
2023-02-22T22:34:24.222Z,64.28
2023-02-22T22:37:27.902Z,64.23
2023-02-22T22:40:29.396Z,64.41
2023-02-22T22:43:32.774Z,64.31
2023-02-22T22:46:34.313Z,64.47
2023-02-22T22:49:40.271Z,64.30
2023-02-22T22:52:42.017Z,64.39
2023-02-22T22:55:43.672Z,64.32
2023-02-22T22:58:54.108Z,64.38
2023-02-22T23:01:56.546Z,64.28
2023-02-22T23:04:58.050Z,64.31
2023-02-22T23:08:04.620Z,64.33
2023-02-22T23:11:09.027Z,64.39
2023-02-22T23:14:19.386Z,64.50
2023-02-22T23:17:30.772Z,64.47
2023-02-22T23:20:33.009Z,64.42
2023-02-22T23:23:34.470Z,64.40
2023-02-22T23:26:35.992Z,64.53
2023-02-22T23:29:39.643Z,64.48
2023-02-22T23:32:42.414Z,64.65
2023-02-22T23:35:48.795Z,64.64
2023-02-22T23:38:50.576Z,64.72
2023-02-22T23:41:59.070Z,64.82
2023-02-22T23:45:00.753Z,64.80
2023-02-22T23:48:03.514Z,64.81
2023-02-22T23:51:11.414Z,64.85
2023-02-22T23:54:24.239Z,64.90
2023-02-22T23:57:25.935Z,64.90
